AirNav   Duncan Aviation - Near you to keep you flying
 
 1717 users online  

3W2 Put in Bay Airport
Put In Bay, Ohio, USA

GOING TO PUT IN BAY?


FAA INFORMATION EFFECTIVE 14 JULY 2022

Location

FAA Identifier: 3W2
Lat/Long: 41-38-12.0000N 082-49-42.0000W
41-38.200000N 082-49.700000W
41.6366667,-82.8283333
(estimated)
Elevation: 595 ft. / 181.4 m (surveyed)
Variation: 07W (2000)
From city: 1 mile SW of PUT IN BAY, OH
Time zone: UTC -4 (UTC -5 during Standard Time)
Zip code: 43456

Airport Operations

Airport use: Open to the public
Activation date: 12/1938
Control tower: no
ARTCC: CLEVELAND CENTER
FSS: CLEVELAND FLIGHT SERVICE STATION
NOTAMs facility: CLE (NOTAM-D service available)
Attendance: IREG
Wind indicator: yes
Segmented circle: yes
Beacon: white-green (lighted land airport)
Operates sunset to sunrise.
Landing fee: yes, PRKG/RAMP FEES FOR ALL PVT & COML ACFT; ALL PILOTS ARE RQRD TO CK IN AT ARPT OFC AT TIME OF ARR; ALL ACFT RQRD TO SHUT DOWN ENGINE(S) WHEN ENPLANING/DEPLANING PAX.

Airport Communications

CTAF/UNICOM: 122.8
WX AWOS-3 at PCW (7 nm S): 118.775 (419-734-9955)

Nearby radio navigation aids

VOR radial/distance  VOR name  Freq  Var
DJBr304/34.3DRYER VOR/DME113.6005W
CRLr134/37.4CARLETON VOR/DME115.7003W

 
NDB name  Hdg/Dist  Freq  Var  ID
PORT CLINTON021/7.342307WPCW .--. -.-. .--
GROSSE ILE160/31.441907WRYS .-. -.-- ...
TIFFIN033/36.926905WTII - .. ..

Airport Services

Parking: hangars and tiedowns
Airframe service: MAJOR
Powerplant service: MAJOR

Runway Information

Runway 3/21

Dimensions: 2870 x 75 ft. / 875 x 23 m
Surface: asphalt, in good condition
RUNWAY 3  RUNWAY 21
Latitude: 41-38.001702N41-38.398105N
Longitude: 082-49.870983W082-49.528005W
Elevation: 592.2 ft.594.5 ft.
Traffic pattern: rightleft
Displaced threshold: 450 ft.657 ft.
Markings: basic, in good conditionbasic, in good condition
Runway end identifier lights: nono
Touchdown point: yes, no lightsyes, no lights
Obstructions: 50 ft. trees, 405 ft. from runway, 140 ft. both sides of centerline, 4:1 slope to clear
+0-5 FT FENCE, 200 FT DIST, 125 FT R, EXTDG TO 250 FT FM DTHR, 125 FT R.
5 ft. fence, 201 ft. from runway, 120 ft. left and right of centerline
+5 FT FENCE, 200 FT DIST, 120 FT R, EXTDG TO DTHR, 125 FT L & R.

Airport Ownership and Management from official FAA records

Ownership: Publicly-owned
Owner: PUT IN BAY TOWNSHIP PORT AUTH
PO BOX 278
PUT IN BAY, OH 43456-0278
Phone 419-285-3371
Manager: ROSANN KEISER
PO BOX 278
PUT IN BAY, OH 43456-0278
Phone 419-285-3371

Airport Operational Statistics

Aircraft based on the field: 10
Single engine airplanes: 9
Helicopters: 1
    
Aircraft operations: avg 41/day *
48% air taxi
42% transient general aviation
10% local general aviation
* for 12-month period ending 01 October 2021

Additional Remarks

FOR CD CTC CLEVELAND APCH AT 216-352-2323.
EXP MOD TURB ON APCH/DEP WHEN WIND EXCEEDS 10 KT.
ACFT LDG RWY 21 OR DEP RWY 03 RMN 1000 FT CLEAR OF PERRY'S MONUMENT 352 FT AGL (942 FT MSL) 1.3 NM NE OF ARPT.
ACFT OPS PROHIBITED DUSK-DAWN.
HELIPAD IS FOR TOUCHDOWN, LOADING, & LIFTOFF ONLY - PARK ON GRASS WEST & SW OF HELIPAD.
BIRDS & OTR WILDLIFE INVOF ARPT.
DECOY COYOTE NEAR MOVEMENT AREAS.

Instrument Procedures

There are no published instrument procedures at 3W2.

Some nearby airports with instrument procedures:

KPCW - Erie-Ottawa International Airport (7 nm S)
S24 - Sandusky County Regional Airport (23 nm SW)
14G - Fremont Airport (24 nm SW)
5A1 - Norwalk-Huron County Airport (27 nm SE)
KTDZ - Toledo Executive Airport (30 nm W)
 
Loc | Ops | Rwys | IFR | FBO | Links
Com | Nav | Svcs | Stats | Notes
Area around 3W2 (Put in Bay Airport)
 
Road maps at: MapQuest Bing Google
 
Aerial photo
WARNING: Photo may not be current or correct
Aerial photo of 3W2 (Put in Bay Airport)
Photo by David Newcomer
Photo taken 22-Sep-2017
from 3,000' altitude looking north.

Do you have a better or more recent aerial photo of Put in Bay Airport that you would like to share? If so, please send us your photo.

 
Sectional chart

 
Airport distance calculator
Flying to Put in Bay Airport? Find the distance to fly.

From to 3W2

Sunrise and sunset
Times for 09-Aug-2022
 Local
(UTC-4)
 Zulu
(UTC)
Morning civil twilight06:0410:04
Sunrise06:3510:35
Sunset20:3900:39
Evening civil twilight21:0901:09

Current date and time
Zulu (UTC)  09-Aug-2022 20:23:22
Local (UTC-4)  09-Aug-2022 16:23:22
 
METAR
KPCW 
7nm S 
091955Z AUTO VRB05KT 10SM FEW023 OVC038 23/19 A3007 RMK AO2
TAF
CYQG 
39nm N 
091740Z 0918/1018 02005KT P6SM FEW030 TEMPO 0918/1001 BKN030 BECMG 0918/0920 15005KT FM100400 10005KT P6SM FEW030 BECMG 1004/1006 VRB03KT RMK FCST BASED ON AUTO OBS. NXT FCST BY 100000Z
KDTW 
42nm NW 
091722Z 0918/1024 03007KT P6SM BKN040 FM092200 05006KT P6SM SCT050 FM100700 33001KT P6SM SKC FM101500 27004KT P6SM SCT250
KTOL 
44nm W 
091722Z 0918/1018 05005KT P6SM OVC030 FM092000 VRB03KT P6SM BKN050 FM100900 VRB03KT 4SM BR BKN150 TEMPO 1009/1013 2SM BR SCT250 FM101300 VRB03KT P6SM FEW200
KCLE 
46nm E 
091722Z 0918/1024 02008KT P6SM BKN025 FM092000 01006KT P6SM BKN035 FM100400 00000KT P6SM BKN150 TEMPO 1006/1010 4SM BR BKN200 FM101300 35004KT P6SM SCT250
KDET 
47nm N 
091722Z 0918/1018 03007KT P6SM BKN040 FM092200 05006KT P6SM SCT050 FM100700 33001KT P6SM SKC FM101500 27004KT P6SM SCT250
KYIP 
48nm NW 
091722Z 0918/1018 03007KT P6SM BKN040 FM092200 05006KT P6SM SCT050 FM100700 33001KT P6SM SKC FM101500 27004KT P6SM SCT250
NOTAMs
Click for the latest NOTAMs
NOTAMs are issued by the DoD/FAA and will open in a separate window not controlled by AirNav.

 

 
 

Getting Around: Taxi, Limo, Rental Cars, Mass Transit

  
 Business Name 
 
 Contact 
 
Services / Description
 
Comments
  
Erie Island Carts 419-285-5278
[web site]
[email]
Ground transportation

More info about Erie Island Carts
 
   2 read write
 

Would you like to see your business listed on this page?

 If your business provides an interesting product or service to pilots, flight crews, aircraft, or users of the Put in Bay Airport, you should consider listing it here.  To start the listing process, click on the button below
 
Add a business
 

Other Pages about Put in Bay Airport

Put-in-Bay Airport
 
Update a link
 
Copyright © AirNav, LLC. All rights reserved. Privacy Policy  Contact